Aviation Digital Data Service (ADDS)

Output produced by METARs form (0516 UTC 30 June 2015)
found at http://aviationweather.gov/adds/metars/
 
KGON 300231Z 3003/3024 VRB04KT P6SM FEW060 
     FM301400 18007KT P6SM SCT050 SCT150 
     FM301800 17010KT P6SM SCT050 BKN150